Time;durP1;ratioP1;P1;durP2;ratioP2;P2;SDS_P1;SDS_P2;PMS_P1;PMS_P2;Temp;Humidity;BMP_temperature;BMP_pressure;BME280_temperature;BME280_humidity;BME280_pressure;Samples;Min_cycle;Max_cycle;Signal;HPM_P1;HPM_P2
2023/09/12 00:00:25;;;;;;;15.00;7.53;;;;;;;22.26;54.08;100177.34;5347907;32;35401;-70
2023/09/12 00:03:45;;;;;;;17.10;6.55;;;;;;;22.88;52.60;100176.09;5374145;32;35830;-71
2023/09/12 00:07:02;;;;;;;12.20;6.22;;;;;;;23.08;51.90;100168.84;5374891;32;34759;-73
2023/09/12 00:10:08;;;;;;;16.98;7.25;;;;;;;23.23;51.17;100166.53;5379861;32;34694;-72
2023/09/12 00:13:20;;;;;;;13.10;6.47;;;;;;;23.35;50.58;100169.88;5373439;32;35381;-73
2023/09/12 00:16:33;;;;;;;18.27;6.90;;;;;;;22.26;54.37;100173.84;5371937;32;35591;-72
2023/09/12 00:19:48;;;;;;;15.30;6.53;;;;;;;22.38;54.12;100178.06;5382591;32;32617;-69
2023/09/12 00:23:09;;;;;;;;;;;;;;;22.65;53.18;100175.53;5382498;32;33744;-68
2023/09/12 00:26:22;;;;;;;15.13;8.02;;;;;;;22.61;53.76;100174.12;5381605;32;33702;-72
2023/09/12 00:29:33;;;;;;;15.82;6.60;;;;;;;22.32;54.76;100174.12;5356836;32;32710;-72
2023/09/12 00:32:53;;;;;;;11.00;6.72;;;;;;;22.72;53.89;100175.78;5385007;32;36309;-72
2023/09/12 00:35:59;;;;;;;14.10;6.47;;;;;;;22.76;53.92;100171.84;5382069;32;34627;-68
2023/09/12 00:39:02;;;;;;;13.90;7.12;;;;;;;23.06;52.63;100164.62;5391849;32;34086;-68
2023/09/12 00:42:17;;;;;;;14.52;6.97;;;;;;;23.30;52.37;100164.94;5377791;32;33263;-72
2023/09/12 00:45:44;;;;;;;15.45;7.00;;;;;;;22.96;53.44;100178.88;5418919;32;33403;-69
2023/09/12 00:49:12;;;;;;;15.18;7.20;;;;;;;22.85;54.15;100176.34;5423134;32;32832;-70
2023/09/12 00:52:45;;;;;;;12.45;7.15;;;;;;;22.96;53.96;100175.38;5418954;32;34111;-73
2023/09/12 00:56:20;;;;;;;15.63;7.03;;;;;;;22.78;54.50;100174.38;5399623;32;35527;-72
2023/09/12 00:59:37;;;;;;;14.38;7.53;;;;;;;22.57;54.92;100177.22;5408212;32;33579;-73
2023/09/12 01:03:02;;;;;;;10.60;6.97;;;;;;;22.53;55.04;100170.44;5406733;32;34417;-69
2023/09/12 01:06:36;;;;;;;14.98;6.68;;;;;;;22.69;54.81;100168.91;5432647;32;33259;-73
2023/09/12 01:10:17;;;;;;;12.10;7.12;;;;;;;22.05;56.52;100171.25;5425501;32;34291;-72
2023/09/12 01:13:48;;;;;;;12.23;6.90;;;;;;;21.75;58.17;100167.66;5420450;32;31959;-70
2023/09/12 01:17:05;;;;;;;20.67;8.32;;;;;;;22.10;56.91;100169.06;5414828;32;33740;-70
2023/09/12 01:20:37;;;;;;;16.45;7.45;;;;;;;21.91;57.64;100169.84;5415766;32;33080;-72
2023/09/12 01:24:38;;;;;;;12.18;6.72;;;;;;;21.67;58.79;100167.50;5439614;32;33657;-70
2023/09/12 01:27:51;;;;;;;13.77;7.75;;;;;;;21.47;60.08;100176.44;5435990;32;35168;-72
2023/09/12 01:30:58;;;;;;;14.23;7.57;;;;;;;21.36;60.03;100182.72;5435026;32;35442;-73
2023/09/12 01:34:43;;;;;;;13.20;7.50;;;;;;;21.52;60.20;100172.41;5440503;32;34070;-74
2023/09/12 01:38:11;;;;;;;17.95;6.95;;;;;;;21.97;58.43;100166.59;5434727;32;34315;-69
2023/09/12 01:41:22;;;;;;;14.43;7.28;;;;;;;21.99;57.17;100172.66;5428378;32;34426;-70
2023/09/12 01:44:27;;;;;;;14.93;7.35;;;;;;;21.98;56.68;100168.28;5427016;32;33468;-73
2023/09/12 01:47:37;;;;;;;12.15;6.85;;;;;;;21.45;58.21;100173.06;5443941;32;34322;-74
2023/09/12 01:51:03;;;;;;;13.82;7.65;;;;;;;21.80;57.69;100169.94;5417009;32;34210;-73
2023/09/12 01:54:28;;;;;;;12.35;7.25;;;;;;;21.89;57.85;100172.63;5430413;32;33817;-73
2023/09/12 01:58:08;;;;;;;19.83;7.43;;;;;;;21.53;58.71;100171.41;5441545;32;35852;-70
2023/09/12 02:01:31;;;;;;;14.52;7.72;;;;;;;21.52;58.82;100171.56;5439319;32;36290;-71
2023/09/12 02:04:50;;;;;;;11.90;7.30;;;;;;;21.65;58.70;100171.31;5405846;32;34427;-72
2023/09/12 02:08:10;;;;;;;14.45;8.15;;;;;;;22.11;57.32;100176.09;5440667;32;33767;-73
2023/09/12 02:11:17;;;;;;;14.98;7.80;;;;;;;21.78;58.36;100174.59;5427560;32;33681;-72
2023/09/12 02:14:40;;;;;;;14.10;7.62;;;;;;;21.85;58.56;100176.56;5409559;32;35224;-69
2023/09/12 02:17:51;;;;;;;15.70;8.10;;;;;;;22.02;58.26;100185.75;5439995;32;35022;-68
2023/09/12 02:21:04;;;;;;;15.05;8.05;;;;;;;21.78;58.47;100182.63;5428651;32;34187;-69
2023/09/12 02:24:07;;;;;;;13.60;8.07;;;;;;;21.66;59.39;100189.06;5438825;32;34719;-73
2023/09/12 02:27:09;;;;;;;;;;;;;;;21.83;58.49;100183.03;5448418;32;33591;-69
2023/09/12 02:30:11;;;;;;;12.37;7.30;;;;;;;22.20;57.20;100190.47;5447071;32;34954;-69
2023/09/12 02:33:14;;;;;;;14.50;7.80;;;;;;;22.13;56.96;100182.13;5449096;32;34481;-72
2023/09/12 02:36:16;;;;;;;;;;;;;;;22.16;57.17;100180.03;5462522;32;33893;-70
2023/09/12 02:39:19;;;;;;;19.77;8.50;;;;;;;21.81;58.51;100179.66;5464764;32;34957;-68
2023/09/12 02:42:21;;;;;;;13.77;7.82;;;;;;;21.32;60.71;100181.31;5447438;32;34566;-73
2023/09/12 02:45:24;;;;;;;15.40;7.80;;;;;;;21.58;59.59;100187.91;5466281;32;34582;-71
2023/09/12 02:48:26;;;;;;;;;;;;;;;22.04;57.77;100178.44;5445405;32;34231;-71
2023/09/12 02:51:29;;;;;;;14.03;7.30;;;;;;;21.85;58.33;100181.09;5467481;32;34586;-73
2023/09/12 02:54:31;;;;;;;;;;;;;;;21.75;58.45;100181.03;5449497;32;33576;-69
2023/09/12 02:57:34;;;;;;;14.82;7.75;;;;;;;21.39;59.87;100179.81;5462310;32;34518;-68
2023/09/12 03:00:40;;;;;;;14.32;7.80;;;;;;;21.50;59.11;100176.16;5466818;32;33770;-72
2023/09/12 03:03:44;;;;;;;13.57;6.93;;;;;;;21.65;58.90;100179.34;5448207;32;34478;-69
2023/09/12 03:06:46;;;;;;;13.73;7.22;;;;;;;21.68;59.26;100177.22;5463488;32;33828;-69
2023/09/12 03:09:51;;;;;;;13.30;7.40;;;;;;;21.80;58.70;100177.97;5446085;32;33470;-69
2023/09/12 03:12:56;;;;;;;16.05;8.02;;;;;;;21.80;58.56;100183.31;5431271;32;34986;-69
2023/09/12 03:15:58;;;;;;;15.18;8.00;;;;;;;21.92;58.27;100181.38;5449415;32;34947;-70
2023/09/12 03:19:02;;;;;;;14.82;7.70;;;;;;;21.14;60.86;100188.22;5446064;32;33860;-74
2023/09/12 03:22:10;;;;;;;17.12;8.02;;;;;;;20.86;62.33;100179.03;5451953;32;34294;-69
2023/09/12 03:25:13;;;;;;;13.65;7.70;;;;;;;21.34;60.15;100184.69;5434299;32;34783;-72
2023/09/12 03:28:15;;;;;;;;;;;;;;;21.83;58.76;100180.34;5452278;32;34537;-72
2023/09/12 03:31:22;;;;;;;16.80;7.68;;;;;;;21.93;57.89;100181.22;5462843;32;34506;-72
2023/09/12 03:34:25;;;;;;;17.58;7.97;;;;;;;21.65;59.05;100187.38;5450907;32;33649;-69
2023/09/12 03:37:28;;;;;;;15.27;8.57;;;;;;;22.08;57.64;100189.69;5457678;32;33895;-69
2023/09/12 03:40:30;;;;;;;;;;;;;;;22.10;57.28;100185.94;5464366;32;34307;-73
2023/09/12 03:43:33;;;;;;;17.58;8.10;;;;;;;21.86;58.27;100191.62;5461303;32;34294;-69
2023/09/12 03:46:35;;;;;;;16.52;7.78;;;;;;;21.77;58.69;100194.31;5446732;32;34091;-71
2023/09/12 03:49:38;;;;;;;13.60;8.10;;;;;;;21.47;59.50;100197.84;5465534;32;34581;-70
2023/09/12 03:52:40;;;;;;;16.65;8.32;;;;;;;21.18;61.04;100205.66;5460618;32;34744;-72
2023/09/12 03:55:43;;;;;;;20.30;8.65;;;;;;;20.81;62.15;100201.66;5465174;32;34814;-72
2023/09/12 03:58:46;;;;;;;;;;;;;;;20.66;63.53;100196.75;5437614;32;34233;-68
2023/09/12 04:01:52;;;;;;;16.58;8.50;;;;;;;20.50;64.32;100200.72;5461672;32;34686;-69
2023/09/12 04:04:59;;;;;;;19.33;8.30;;;;;;;20.57;64.14;100197.53;5449538;32;34683;-69
2023/09/12 04:08:02;;;;;;;16.60;8.27;;;;;;;21.06;62.33;100199.59;5457366;32;34304;-72
2023/09/12 04:11:05;;;;;;;18.70;8.63;;;;;;;21.13;62.08;100210.59;5465876;32;33690;-71
2023/09/12 04:14:07;;;;;;;17.45;8.68;;;;;;;20.34;64.59;100205.59;5447262;32;34806;-72
2023/09/12 04:17:11;;;;;;;16.05;8.07;;;;;;;21.04;61.26;100201.50;5462853;32;34417;-73
2023/09/12 04:20:14;;;;;;;15.98;8.43;;;;;;;21.10;61.30;100204.50;5466092;32;33932;-70
2023/09/12 04:23:16;;;;;;;12.65;7.70;;;;;;;20.91;62.55;100206.22;5460530;32;34110;-72
2023/09/12 04:26:19;;;;;;;17.20;8.30;;;;;;;21.45;60.48;100202.50;5464133;32;34037;-69
2023/09/12 04:29:21;;;;;;;16.08;8.77;;;;;;;21.93;58.32;100201.78;5444162;32;33769;-71
2023/09/12 04:32:24;;;;;;;13.93;7.90;;;;;;;21.45;59.62;100203.34;5464921;32;33706;-69
2023/09/12 04:35:27;;;;;;;15.50;8.20;;;;;;;21.51;59.45;100204.59;5464748;32;33367;-72
2023/09/12 04:38:29;;;;;;;14.05;8.23;;;;;;;20.49;63.18;100212.38;5463076;32;34195;-70
2023/09/12 04:41:32;;;;;;;18.33;8.65;;;;;;;21.32;60.53;100210.72;5460669;32;34327;-74
2023/09/12 04:44:36;;;;;;;15.98;7.80;;;;;;;21.51;60.19;100210.81;5464358;32;35026;-72
2023/09/12 04:47:38;;;;;;;16.42;8.57;;;;;;;21.78;58.94;100207.53;5466697;32;34441;-71
2023/09/12 04:50:42;;;;;;;19.55;8.05;;;;;;;21.67;58.84;100218.31;5464079;32;34357;-71
2023/09/12 04:53:45;;;;;;;26.40;9.18;;;;;;;20.94;61.02;100225.50;5466638;32;34212;-69
2023/09/12 04:56:48;;;;;;;17.58;8.60;;;;;;;21.01;61.59;100229.34;5463536;32;34129;-69
2023/09/12 04:59:52;;;;;;;19.45;9.07;;;;;;;21.42;60.28;100224.97;5450141;32;33520;-69
2023/09/12 05:02:54;;;;;;;17.83;9.50;;;;;;;22.16;57.40;100227.37;5464721;32;34253;-69
2023/09/12 05:05:58;;;;;;;21.23;10.98;;;;;;;21.72;58.29;100224.13;5460434;32;33875;-73
2023/09/12 05:09:00;;;;;;;21.33;8.98;;;;;;;21.13;60.94;100237.31;5450482;32;33843;-72
2023/09/12 05:12:02;;;;;;;20.02;10.57;;;;;;;21.81;58.42;100233.16;5448011;32;34495;-71
2023/09/12 05:15:05;;;;;;;17.77;9.07;;;;;;;22.47;56.72;100236.13;5467630;32;34458;-72
2023/09/12 05:18:07;;;;;;;;;;;;;;;22.90;54.60;100224.19;5431518;32;34245;-69
2023/09/12 05:21:09;;;;;;;18.13;8.40;;;;;;;22.75;54.62;100228.25;5464135;32;33963;-69
2023/09/12 05:24:11;;;;;;;16.45;7.78;;;;;;;23.04;53.47;100222.88;5450360;32;34811;-73
2023/09/12 05:27:13;;;;;;;19.12;7.50;;;;;;;23.48;52.07;100232.09;5463416;32;34179;-73
2023/09/12 05:30:18;;;;;;;20.20;8.88;;;;;;;23.99;50.90;100220.00;5452996;32;34239;-72
2023/09/12 05:33:21;;;;;;;18.67;8.05;;;;;;;23.92;50.21;100222.47;5448260;32;33903;-69
2023/09/12 05:36:24;;;;;;;;;;;;;;;24.74;48.60;100221.47;5464190;32;34191;-74
2023/09/12 05:39:26;;;;;;;21.00;9.43;;;;;;;25.31;46.58;100234.50;5464482;32;34626;-69
2023/09/12 05:42:29;;;;;;;17.80;8.70;;;;;;;24.04;49.97;100233.84;5460780;32;34928;-73
2023/09/12 05:45:33;;;;;;;15.63;9.30;;;;;;;24.43;48.98;100231.78;5468620;32;34498;-69
2023/09/12 05:48:36;;;;;;;;;;;;;;;25.59;46.00;100236.03;5457127;32;34896;-77
2023/09/12 05:51:38;;;;;;;16.62;7.57;;;;;;;24.50;49.11;100238.22;5438284;32;34813;-69
2023/09/12 05:54:41;;;;;;;22.45;8.15;;;;;;;26.51;44.54;100238.91;5444132;32;34420;-69
2023/09/12 05:57:44;;;;;;;17.35;7.90;;;;;;;27.48;41.60;100238.88;5457487;32;33731;-72
2023/09/12 06:00:47;;;;;;;15.60;7.85;;;;;;;27.18;41.72;100243.19;5449810;32;33691;-75
2023/09/12 06:03:50;;;;;;;17.05;7.95;;;;;;;26.07;44.56;100237.25;5433744;32;34143;-78
2023/09/12 06:06:53;;;;;;;21.37;10.35;;;;;;;27.27;41.65;100235.91;5434684;32;33801;-79
2023/09/12 06:09:55;;;;;;;13.98;7.72;;;;;;;26.26;43.80;100240.69;5445042;32;33585;-88
2023/09/12 06:12:58;;;;;;;17.65;7.93;;;;;;;27.66;41.20;100235.97;5445038;32;33815;-70
2023/09/12 06:16:00;;;;;;;19.00;8.45;;;;;;;27.18;41.39;100242.34;5437931;32;33822;-72
2023/09/12 06:19:02;;;;;;;17.40;7.90;;;;;;;26.85;42.42;100242.28;5461148;32;33853;-78
2023/09/12 06:22:04;;;;;;;17.35;7.82;;;;;;;28.77;38.62;100246.53;5454376;32;33788;-77
2023/09/12 06:25:07;;;;;;;17.80;7.72;;;;;;;27.72;39.73;100246.09;5433615;32;35744;-68
2023/09/12 06:28:10;;;;;;;20.00;7.30;;;;;;;27.30;41.02;100258.97;5455020;32;35138;-72
2023/09/12 06:31:14;;;;;;;23.65;9.02;;;;;;;27.34;40.99;100247.69;5441359;32;35330;-70
2023/09/12 06:34:17;;;;;;;16.65;7.25;;;;;;;27.53;39.91;100247.31;5440437;32;34755;-70
2023/09/12 06:37:19;;;;;;;24.95;7.93;;;;;;;26.93;41.60;100246.87;5452260;32;35035;-68
2023/09/12 06:40:21;;;;;;;18.48;7.05;;;;;;;26.91;42.25;100247.00;5436061;32;33258;-74
2023/09/12 06:43:25;;;;;;;16.37;7.65;;;;;;;29.04;37.90;100244.31;5451745;32;34462;-73
2023/09/12 06:46:29;;;;;;;18.08;7.93;;;;;;;30.25;35.06;100246.69;5452835;32;36040;-73
2023/09/12 06:49:36;;;;;;;16.42;7.37;;;;;;;30.76;34.26;100246.63;5452913;32;33706;-70
2023/09/12 06:52:39;;;;;;;17.50;7.55;;;;;;;29.24;37.02;100247.31;5445390;32;33915;-70
2023/09/12 06:55:43;;;;;;;24.75;8.15;;;;;;;31.04;33.49;100235.78;5455734;32;34642;-72
2023/09/12 06:58:46;;;;;;;20.42;8.02;;;;;;;29.56;36.10;100246.16;5443128;32;35709;-70
2023/09/12 07:01:51;;;;;;;17.67;7.78;;;;;;;29.58;36.03;100250.37;5444556;32;35900;-70
2023/09/12 07:04:55;;;;;;;21.95;7.80;;;;;;;31.23;33.38;100245.13;5456194;32;35389;-68
2023/09/12 07:07:57;;;;;;;21.77;7.43;;;;;;;30.72;33.50;100254.31;5451946;32;34305;-69
2023/09/12 07:11:06;;;;;;;17.92;9.15;;;;;;;28.67;37.87;100264.03;5443141;32;33613;-67
2023/09/12 07:14:12;;;;;;;13.93;7.47;;;;;;;29.88;34.90;100244.94;5445235;32;34177;-70
2023/09/12 07:17:23;;;;;;;28.12;11.57;;;;;;;28.92;37.43;100256.56;5427374;32;34705;-75
2023/09/12 07:20:26;;;;;;;18.55;7.95;;;;;;;29.94;35.05;100249.59;5439246;32;34064;-73
2023/09/12 07:23:28;;;;;;;16.52;8.30;;;;;;;31.71;32.18;100245.25;5445751;32;34511;-78
2023/09/12 07:26:30;;;;;;;18.33;7.82;;;;;;;32.94;29.99;100249.66;5435478;32;34846;-71
2023/09/12 07:29:33;;;;;;;19.98;8.57;;;;;;;32.57;30.47;100246.44;5455947;32;34639;-86
2023/09/12 07:32:35;;;;;;;24.12;8.70;;;;;;;29.72;35.37;100266.81;5451075;32;33463;-71
2023/09/12 07:35:38;;;;;;;22.23;8.20;;;;;;;30.77;33.61;100259.16;5429203;32;34989;-70
2023/09/12 07:38:43;;;;;;;23.15;8.98;;;;;;;31.56;32.37;100261.69;5451279;32;35105;-89
2023/09/12 07:41:46;;;;;;;20.00;8.80;;;;;;;30.20;34.93;100254.53;5455770;32;34935;-70
2023/09/12 07:44:48;;;;;;;24.02;8.50;;;;;;;31.48;33.19;100257.22;5439806;32;34298;-69
2023/09/12 07:47:50;;;;;;;23.50;8.98;;;;;;;32.16;31.96;100260.13;5459210;32;33841;-72
2023/09/12 07:50:53;;;;;;;28.08;12.23;;;;;;;32.08;31.22;100258.44;5446085;32;35157;-78
2023/09/12 07:53:56;;;;;;;13.98;7.55;;;;;;;32.45;30.54;100256.25;5441044;32;33639;-79
2023/09/12 07:56:58;;;;;;;20.48;9.43;;;;;;;35.08;26.72;100249.50;5456716;32;34161;-72
2023/09/12 08:00:01;;;;;;;15.10;8.30;;;;;;;32.14;31.17;100254.06;5457428;32;33586;-70
2023/09/12 08:03:03;;;;;;;16.02;8.82;;;;;;;33.03;30.15;100250.28;5460147;32;34448;-69
2023/09/12 08:06:07;;;;;;;18.65;8.68;;;;;;;34.09;28.72;100247.37;5431937;32;33778;-72
2023/09/12 08:09:12;;;;;;;17.42;8.35;;;;;;;34.47;28.00;100239.22;5457843;32;34311;-73
2023/09/12 08:12:15;;;;;;;18.08;8.50;;;;;;;33.11;29.87;100248.22;5454843;32;33560;-72
2023/09/12 08:15:20;;;;;;;20.55;9.30;;;;;;;32.86;30.74;100244.41;5433192;32;34897;-78
2023/09/12 08:18:30;;;;;;;26.77;8.90;;;;;;;33.99;28.76;100230.63;5451027;32;33932;-82
2023/09/12 08:21:33;;;;;;;21.70;7.68;;;;;;;34.20;28.54;100228.44;5456172;32;35091;-80
2023/09/12 08:24:36;;;;;;;20.77;8.18;;;;;;;35.41;26.82;100229.22;5448963;32;34125;-69
2023/09/12 08:27:39;;;;;;;15.63;8.18;;;;;;;35.65;26.19;100231.09;5437423;32;34590;-85
2023/09/12 08:30:45;;;;;;;20.73;8.02;;;;;;;36.02;25.94;100233.81;5457354;32;34277;-69
2023/09/12 08:33:47;;;;;;;18.27;7.45;;;;;;;34.69;27.17;100236.97;5453622;32;33613;-80
2023/09/12 08:36:50;;;;;;;16.17;8.35;;;;;;;36.03;25.16;100233.59;5452482;32;34080;-72
2023/09/12 08:39:57;;;;;;;16.77;8.68;;;;;;;36.27;24.99;100231.81;5459643;32;34492;-81
2023/09/12 08:43:03;;;;;;;14.05;8.10;;;;;;;35.08;26.12;100237.72;5458966;32;34672;-86
2023/09/12 08:46:09;;;;;;;19.15;7.50;;;;;;;35.44;25.54;100229.66;5459456;32;36112;-76
2023/09/12 08:49:15;;;;;;;20.73;7.37;;;;;;;36.73;23.81;100233.03;5457204;32;34516;-72
2023/09/12 08:52:18;;;;;;;15.27;6.72;;;;;;;38.94;21.03;100216.31;5432692;32;34244;-82
2023/09/12 08:55:20;;;;;;;12.88;6.00;;;;;;;36.77;23.11;100223.25;5442421;32;34518;-78
2023/09/12 08:58:22;;;;;;;14.70;6.03;;;;;;;38.20;21.46;100226.50;5447740;32;33497;-71
2023/09/12 09:01:27;;;;;;;21.55;6.72;;;;;;;36.03;23.94;100222.66;5429365;32;34855;-71
2023/09/12 09:04:32;;;;;;;18.10;6.25;;;;;;;37.34;22.39;100220.00;5451007;32;34965;-85
2023/09/12 09:07:39;;;;;;;13.80;6.65;;;;;;;38.85;19.96;100211.50;5441925;32;33873;-72
2023/09/12 09:10:58;;;;;;;13.60;6.05;;;;;;;38.67;20.44;100221.62;5439768;32;33496;-78
2023/09/12 09:14:03;;;;;;;16.23;7.05;;;;;;;37.91;21.21;100223.75;5439278;32;36712;-73
2023/09/12 09:17:12;;;;;;;16.92;6.50;;;;;;;37.35;22.01;100218.94;5438325;32;33608;-83
2023/09/12 09:20:35;;;;;;;15.23;5.65;;;;;;;37.78;21.78;100224.00;5458644;32;33929;-73
2023/09/12 09:23:46;;;;;;;16.17;6.28;;;;;;;37.41;22.08;100218.81;5449723;32;34875;-86
2023/09/12 09:26:50;;;;;;;15.55;5.85;;;;;;;39.09;20.49;100210.22;5442552;32;33730;-74
2023/09/12 09:29:52;;;;;;;16.48;5.55;;;;;;;39.07;19.70;100209.66;5443436;32;33624;-83
2023/09/12 09:32:55;;;;;;;18.45;6.07;;;;;;;39.21;19.34;100207.41;5459611;32;33711;-77
2023/09/12 09:36:04;;;;;;;11.40;4.70;;;;;;;36.93;21.90;100210.00;5457600;32;33725;-76
2023/09/12 09:39:07;;;;;;;9.83;4.83;;;;;;;39.98;18.08;100210.06;5444923;32;33546;-75
2023/09/12 09:42:13;;;;;;;14.00;5.85;;;;;;;37.84;20.46;100217.56;5427162;32;34980;-73
2023/09/12 09:45:16;;;;;;;12.57;5.95;;;;;;;37.73;20.98;100225.78;5448098;32;33562;-69
2023/09/12 09:48:21;;;;;;;15.48;5.75;;;;;;;36.38;22.62;100221.13;5447610;32;33975;-72
2023/09/12 09:51:25;;;;;;;13.80;5.20;;;;;;;38.51;20.21;100211.44;5458161;32;34170;-75
2023/09/12 09:54:27;;;;;;;13.93;5.30;;;;;;;39.69;19.22;100212.22;5445624;32;34245;-73
2023/09/12 09:57:30;;;;;;;15.00;5.45;;;;;;;40.73;18.06;100205.63;5433193;32;33480;-75
2023/09/12 10:00:39;;;;;;;18.50;5.53;;;;;;;38.28;20.51;100206.09;5448818;32;33774;-72
2023/09/12 10:03:43;;;;;;;18.77;5.40;;;;;;;38.66;19.83;100208.16;5452755;32;36815;-78
2023/09/12 10:06:46;;;;;;;8.75;4.32;;;;;;;38.80;19.55;100200.44;5444558;32;33655;-72
2023/09/12 10:09:49;;;;;;;14.35;4.62;;;;;;;41.87;15.57;100201.41;5448844;32;33416;-90
2023/09/12 10:12:56;;;;;;;11.93;4.87;;;;;;;40.95;16.54;100188.19;5445343;32;33801;-70
2023/09/12 10:16:01;;;;;;;13.68;4.57;;;;;;;38.60;19.12;100203.66;5447813;32;35011;-81
2023/09/12 10:19:13;;;;;;;12.63;4.60;;;;;;;41.30;15.94;100196.69;5445372;32;34901;-75
2023/09/12 10:22:23;;;;;;;11.45;4.78;;;;;;;39.80;17.26;100193.91;5460377;32;33840;-75
2023/09/12 10:25:25;;;;;;;10.85;4.78;;;;;;;38.57;18.46;100188.47;5452443;32;35026;-70
2023/09/12 10:28:28;;;;;;;15.02;4.78;;;;;;;40.37;16.52;100190.69;5457339;32;34205;-78
2023/09/12 10:31:32;;;;;;;11.20;4.75;;;;;;;38.70;17.87;100193.66;5457444;32;34537;-73
2023/09/12 10:34:34;;;;;;;18.85;5.18;;;;;;;35.95;21.37;100192.91;5456848;32;34635;-78
2023/09/12 10:37:42;;;;;;;12.98;5.25;;;;;;;35.47;22.51;100196.37;5450036;32;34283;-81
2023/09/12 10:40:44;;;;;;;11.12;5.65;;;;;;;36.43;21.43;100193.91;5447766;32;33927;-78
2023/09/12 10:43:52;;;;;;;12.05;5.65;;;;;;;34.93;23.43;100187.03;5463356;32;35406;-77
2023/09/12 10:47:00;;;;;;;11.35;5.12;;;;;;;33.56;25.39;100188.44;5454927;32;33544;-71
2023/09/12 10:50:03;;;;;;;17.08;5.72;;;;;;;34.69;23.73;100182.38;5456829;32;32667;-73
2023/09/12 10:53:13;;;;;;;11.95;5.40;;;;;;;33.55;25.25;100185.91;5459595;32;33760;-74
2023/09/12 10:56:21;;;;;;;12.37;5.07;;;;;;;34.63;23.59;100177.81;5429096;32;35209;-73
2023/09/12 10:59:26;;;;;;;12.82;4.95;;;;;;;34.42;23.43;100179.03;5460769;32;35109;-72
2023/09/12 11:02:35;;;;;;;16.10;5.95;;;;;;;34.85;22.68;100176.37;5441468;32;34183;-71
2023/09/12 11:05:51;;;;;;;12.35;4.78;;;;;;;33.91;24.34;100179.94;5455780;32;35082;-67
2023/09/12 11:09:16;;;;;;;9.30;4.78;;;;;;;33.68;24.81;100180.41;5454892;32;33720;-76
2023/09/12 11:12:57;;;;;;;10.38;5.03;;;;;;;34.00;23.89;100175.87;5455734;32;33790;-83
2023/09/12 11:16:16;;;;;;;10.13;4.47;;;;;;;33.27;24.39;100181.56;5455253;32;34608;-80
2023/09/12 11:19:22;;;;;;;12.20;5.82;;;;;;;33.11;24.66;100173.84;5437815;32;35133;-73
2023/09/12 11:22:34;;;;;;;11.52;4.45;;;;;;;33.37;24.37;100168.34;5456036;32;33329;-75
2023/09/12 11:25:39;;;;;;;12.80;4.65;;;;;;;33.76;23.64;100171.19;5463617;32;33576;-78
2023/09/12 11:28:44;;;;;;;14.87;5.25;;;;;;;34.23;23.23;100156.25;5446577;32;35105;-79
2023/09/12 11:31:57;;;;;;;17.48;6.82;;;;;;;34.65;22.75;100154.72;5453659;32;33596;-74
2023/09/12 11:35:05;;;;;;;15.07;4.70;;;;;;;35.99;21.46;100149.50;5441015;32;32966;-78
2023/09/12 11:38:10;;;;;;;13.85;4.78;;;;;;;37.10;19.88;100148.78;5444478;32;34370;-72
2023/09/12 11:41:13;;;;;;;16.50;4.82;;;;;;;37.49;19.42;100142.78;5462720;32;36750;-70
2023/09/12 11:44:21;;;;;;;15.02;4.60;;;;;;;36.35;20.42;100138.44;5444709;32;33358;-72
2023/09/12 11:47:33;;;;;;;15.65;5.00;;;;;;;36.29;20.71;100135.81;5433068;32;35018;-73
2023/09/12 11:50:38;;;;;;;12.45;5.03;;;;;;;36.16;21.21;100138.75;5461641;32;35886;-68
2023/09/12 11:53:47;;;;;;;11.98;4.62;;;;;;;35.12;22.67;100138.75;5440694;32;35004;-69
2023/09/12 11:56:50;;;;;;;9.93;4.03;;;;;;;35.24;22.02;100139.66;5460536;32;36374;-67
2023/09/12 11:59:53;;;;;;;12.57;4.28;;;;;;;35.93;20.73;100136.75;5456064;32;34303;-72
2023/09/12 12:02:56;;;;;;;11.57;4.43;;;;;;;36.19;20.46;100121.84;5461274;32;33939;-76
2023/09/12 12:06:01;;;;;;;11.73;4.82;;;;;;;35.78;21.15;100123.47;5457943;32;35060;-70
2023/09/12 12:09:04;;;;;;;19.95;4.95;;;;;;;37.06;19.69;100127.56;5460952;32;37051;-74
2023/09/12 12:12:13;;;;;;;13.23;4.47;;;;;;;39.92;17.19;100122.22;5447048;32;35150;-85
2023/09/12 12:15:15;;;;;;;14.02;4.57;;;;;;;39.13;17.55;100123.44;5463086;32;34288;-76
2023/09/12 12:18:18;;;;;;;16.35;4.62;;;;;;;39.61;17.13;100108.19;5450297;32;35371;-73
2023/09/12 12:21:20;;;;;;;13.88;4.55;;;;;;;39.72;16.84;100111.84;5427809;32;35459;-73
2023/09/12 12:24:25;;;;;;;13.68;4.80;;;;;;;39.15;17.12;100107.56;5458955;32;35725;-71
2023/09/12 12:27:28;;;;;;;14.65;4.47;;;;;;;40.55;16.24;100101.37;5455443;32;33960;-72
2023/09/12 12:30:32;;;;;;;13.25;4.32;;;;;;;41.99;14.78;100096.25;5454391;32;34728;-70
2023/09/12 12:33:35;;;;;;;14.80;5.00;;;;;;;41.87;14.44;100102.06;5450916;32;33685;-74
2023/09/12 12:36:57;;;;;;;12.23;4.20;;;;;;;39.36;16.65;100102.34;5441098;32;34676;-77
2023/09/12 12:40:00;;;;;;;13.43;4.80;;;;;;;38.62;17.41;100099.88;5451975;32;34446;-79
2023/09/12 12:43:07;;;;;;;10.23;3.95;;;;;;;36.31;19.65;100103.56;5449098;32;33678;-80
2023/09/12 12:46:12;;;;;;;14.77;4.30;;;;;;;36.78;19.40;100090.78;5456586;32;35374;-78
2023/09/12 12:49:19;;;;;;;13.25;4.30;;;;;;;36.53;19.68;100087.44;5448459;32;34062;-79
2023/09/12 12:52:25;;;;;;;16.40;4.68;;;;;;;35.01;21.46;100084.87;5427570;32;33809;-78
2023/09/12 12:55:27;;;;;;;16.65;4.25;;;;;;;35.96;20.43;100078.88;5442125;32;34023;-78
2023/09/12 12:58:30;;;;;;;18.23;4.07;;;;;;;37.07;18.69;100083.50;5459931;32;33643;-74
2023/09/12 13:01:36;;;;;;;12.10;4.30;;;;;;;37.41;18.48;100075.47;5458126;32;33547;-73
2023/09/12 13:04:39;;;;;;;13.38;4.22;;;;;;;38.09;17.69;100074.56;5451299;32;33346;-73
2023/09/12 13:07:44;;;;;;;14.75;4.45;;;;;;;39.28;16.85;100065.94;5457716;32;35072;-76
2023/09/12 13:10:48;;;;;;;15.93;5.40;;;;;;;39.41;16.77;100072.97;5462910;32;33732;-78
2023/09/12 13:13:52;;;;;;;20.52;4.37;;;;;;;40.92;15.31;100070.25;5454732;32;33843;-75
2023/09/12 13:16:55;;;;;;;12.43;4.75;;;;;;;40.65;15.33;100067.59;5449287;32;34603;-74
2023/09/12 13:19:57;;;;;;;14.48;4.62;;;;;;;36.94;18.98;100075.53;5456869;32;35502;-74
2023/09/12 13:23:00;;;;;;;17.58;4.93;;;;;;;37.91;18.04;100069.31;5463890;32;34325;-81
2023/09/12 13:26:03;;;;;;;11.93;3.90;;;;;;;36.65;19.44;100077.34;5433549;32;34936;-80
2023/09/12 13:29:06;;;;;;;19.08;6.97;;;;;;;35.31;20.56;100076.75;5464247;32;33507;-83
2023/09/12 13:32:10;;;;;;;12.98;4.20;;;;;;;34.28;22.45;100068.31;5449397;32;34999;-75
2023/09/12 13:35:18;;;;;;;17.77;4.80;;;;;;;34.85;21.27;100072.66;5456131;32;35078;-70
2023/09/12 13:38:21;;;;;;;12.35;4.60;;;;;;;34.38;21.87;100069.47;5461708;32;33795;-79
2023/09/12 13:41:28;;;;;;;15.13;4.68;;;;;;;34.06;22.43;100071.41;5449050;32;35062;-76
2023/09/12 13:44:30;;;;;;;15.35;4.90;;;;;;;33.75;22.64;100058.59;5457704;32;34979;-74
2023/09/12 13:47:33;;;;;;;19.58;4.40;;;;;;;34.47;22.21;100068.19;5466107;32;33762;-75
2023/09/12 13:50:37;;;;;;;15.15;5.28;;;;;;;34.43;21.80;100071.56;5442372;32;37265;-77
2023/09/12 13:53:39;;;;;;;14.73;4.50;;;;;;;33.70;23.02;100063.87;5465761;32;34238;-76
2023/09/12 13:56:43;;;;;;;17.48;4.53;;;;;;;34.33;22.09;100061.16;5454051;32;36907;-74
2023/09/12 13:59:48;;;;;;;19.73;4.32;;;;;;;33.94;22.11;100063.13;5461171;32;35083;-70
2023/09/12 14:02:51;;;;;;;22.65;4.95;;;;;;;34.05;21.85;100058.84;5450663;32;33765;-74
2023/09/12 14:05:54;;;;;;;17.98;5.45;;;;;;;33.86;22.38;100066.06;5446992;32;33663;-72
2023/09/12 14:08:57;;;;;;;13.77;4.65;;;;;;;34.01;22.24;100059.50;5440639;32;34176;-74
2023/09/12 14:12:00;;;;;;;15.98;4.95;;;;;;;33.72;22.21;100064.47;5452182;32;35110;-77
2023/09/12 14:15:04;;;;;;;18.27;5.82;;;;;;;34.19;21.61;100057.66;5464371;32;36346;-75
2023/09/12 14:18:10;;;;;;;13.68;4.10;;;;;;;33.37;22.89;100061.28;5460293;32;33861;-77
2023/09/12 14:21:14;;;;;;;22.02;5.70;;;;;;;34.11;21.61;100060.69;5446835;32;33658;-74